• Join FlightAware (Why Join?)
  • Login
  • US Flag 
12:03PM EDT


 

Airport Tracker/Info


-or-


 

Live Flight TrackerFlight Track Log ✈ N1903G ✈ 02-Jul-2013 ✈ KOKC - KSAN

Flight Track Log - Related Links

Times and Time Zones

All times are in EDT time to prevent confusion due to time zone crossing. See the N1903G flight status page for this flight to view local times or setup timezone preferences in your user account.

Time Position Orientation Groundspeed Altitude Reporting Facility
EDT Latitude Longitude Course Direction KTS MPH feet Rate Location/Type
11:30AM 35.3978 -97.5919 350° North 151 174 1,800  Level Fort Worth Center
11:30AM 35.4331 -97.5994 350° North 207 238 3,600 3,060 Climbing Fort Worth Center
11:31AM 35.4747 -97.6531 314° West 256 295 6,500 3,240 Climbing Fort Worth Center
11:33AM 35.4869 -97.7908 276° West 306 352 11,600 3,240 Climbing Fort Worth Center
11:34AM 35.4678 -97.8928 257° West 311 358 14,800 2,280 Climbing Fort Worth Center
11:35AM 35.4486 -98.0125 259° West 334 384 16,200 1,800 Climbing Fort Worth Center
11:36AM 35.4250 -98.1397 257° West 366 421 18,500 2,400 Climbing Fort Worth Center
11:37AM 35.4033 -98.2667 258° West 384 442 21,000 2,220 Climbing Fort Worth Center
11:38AM 35.3814 -98.3964 258° West 389 448 23,000 1,440 Climbing Fort Worth Center
11:39AM 35.3678 -98.5489 264° West 400 460 23,900 1,440 Climbing Fort Worth Center
11:40AM 35.3517 -98.6964 262° West 422 486 25,900 1,980 Climbing Fort Worth Center
11:41AM 35.3417 -98.8386 265° West 428 493 27,900 1,980 Climbing Fort Worth Center
11:42AM 35.3275 -98.9783 263° West 423 487 29,900 1,980 Climbing Fort Worth Center
11:43AM 35.3153 -99.1106 264° West 418 481 31,900 1,500 Climbing Fort Worth Center
11:44AM 35.3031 -99.2450 264° West 407 468 33,000 960 Climbing Fort Worth Center
11:45AM 35.2847 -99.4322 263° West 397 457 34,400 900 Climbing Albuquerque Center
11:46AM 35.2728 -99.5689 264° West 400 460 35,300 720 Climbing Albuquerque Center
11:47AM 35.2597 -99.7044 263° West 401 461 36,000 300 Climbing Albuquerque Center
11:48AM 35.2458 -99.8433 263° West 407 468 36,000  Level Albuquerque Center
11:50AM 35.2281 -100.0208 263° West 431 496 36,000  Level Albuquerque Center
11:51AM 35.2125 -100.1728 263° West 444 511 36,000  Level Albuquerque Center
11:52AM 35.1961 -100.3281 263° West 455 524 36,000  Level Albuquerque Center
11:53AM 35.1792 -100.4836 262° West 459 528 36,000  Level Albuquerque Center
11:54AM 35.1642 -100.6269 263° West 461 531 36,000  Level Albuquerque Center
11:55AM 35.1439 -100.8133 262° West 461 531 36,000  Level Albuquerque Center
11:56AM 35.1275 -100.9664 263° West 457 526 36,000  Level Albuquerque Center
11:57AM 35.1100 -101.1197 262° West 455 524 36,000  Level Albuquerque Center
11:58AM 35.0936 -101.2728 263° West 455 524 36,000  Level Albuquerque Center
11:59AM 35.0769 -101.4397 263° West 455 524 36,000  Level Albuquerque Center
12:00PM 35.0614 -101.5939 263° West 456 525 36,000  Level Albuquerque Center
12:01PM 35.0408 -101.7381 260° West 453 521 36,000  Level Albuquerque Center
12:02PM 35.0233 -101.8942 262° West 458 527 36,000  Level Albuquerque Center
12:03PM 35.0039 -102.0469 261° West 457 526 36,000  Level Albuquerque Center
12:04PM 34.9822 -102.2319 262° West 458 527 36,000  Level Albuquerque Center
12:05PM 34.9636 -102.3858 262° West 459 528 36,000  Level Albuquerque Center
12:06PM 34.9450 -102.5397 262° West 459 528 36,000  Level Albuquerque Center
12:07PM 34.9267 -102.6953 262° West 457 526 36,000  Level Albuquerque Center
12:08PM 34.9058 -102.8500 261° West 458 527 36,000  Level Albuquerque Center
12:09PM 34.8867 -103.0047 261° West 458 527 36,000  Level Albuquerque Center
12:10PM 34.8675 -103.1594 261° West 458 527 36,000  Level Albuquerque Center
12:11PM 34.8469 -103.3153 261° West 461 531 36,000  Level Albuquerque Center
12:12PM 34.8233 -103.4972 261° West 462 532 36,000  Level Albuquerque Center
12:13PM 34.8033 -103.6528 261° West 462 532 36,000  Level Albuquerque Center
12:14PM 34.7822 -103.8100 261° West 463 533 36,000  Level Albuquerque Center
12:15PM 34.7600 -103.9661 260° West 464 534 36,000  Level Albuquerque Center
12:16PM 34.7386 -104.1239 261° West 465 535 36,000  Level Albuquerque Center
12:17PM 34.7164 -104.2817 260° West 467 537 36,000  Level Albuquerque Center
12:18PM 34.6956 -104.4383 261° West 464 534 36,000  Level Albuquerque Center
12:19PM 34.6733 -104.5953 260° West 465 535 36,000  Level Albuquerque Center
12:20PM 34.6517 -104.7536 261° West 468 539 36,000  Level Albuquerque Center
12:21PM 34.6300 -104.9103 261° West 467 537 36,000  Level Albuquerque Center
12:22PM 34.6067 -105.0656 260° West 464 534 36,000  Level Albuquerque Center
12:24PM 34.5808 -105.2472 260° West 464 534 36,000  Level Albuquerque Center
12:25PM 34.5575 -105.4017 260° West 462 532 36,000  Level Albuquerque Center
12:26PM 34.5347 -105.5572 260° West 463 533 36,000  Level Albuquerque Center
12:27PM 34.5106 -105.7125 259° West 463 533 36,000  Level Albuquerque Center
12:28PM 34.4878 -105.8686 260° West 466 536 36,000  Level Albuquerque Center
12:29PM 34.4647 -106.0228 260° West 464 534 36,000  Level Albuquerque Center
12:30PM 34.4394 -106.1775 259° West 464 534 36,000  Level Albuquerque Center
12:31PM 34.4158 -106.3225 259° West 466 536 36,000  Level Albuquerque Center
12:32PM 34.3869 -106.5042 259° West 460 529 36,000  Level Albuquerque Center
12:33PM 34.3639 -106.6578 260° West 460 529 36,000  Level Albuquerque Center
12:34PM 34.3383 -106.8131 259° West 466 536 36,000  Level Albuquerque Center
12:35PM 34.3072 -106.9678 256° West 464 534 36,000  Level Albuquerque Center
12:36PM 34.2703 -107.1375 255° West 466 536 36,000  Level Albuquerque Center
12:37PM 34.2381 -107.2922 256° West 473 544 36,000  Level Albuquerque Center
12:38PM 34.2053 -107.4450 255° West 473 544 36,000  Level Albuquerque Center
12:39PM 34.1722 -107.5969 255° West 471 542 36,000  Level Albuquerque Center
12:40PM 34.1392 -107.7478 255° West 468 539 36,000  Level Albuquerque Center
12:41PM 34.1061 -107.8978 255° West 467 537 36,000  Level Albuquerque Center
12:42PM 34.0664 -108.0786 255° West 467 537 36,000  Level Albuquerque Center
12:43PM 34.0331 -108.2308 255° West 470 541 36,000  Level Albuquerque Center
12:44PM 34.0011 -108.3803 256° West 467 537 36,000  Level Albuquerque Center
12:45PM 33.9642 -108.5478 255° West 471 542 36,000  Level Albuquerque Center
12:46PM 33.9303 -108.6978 255° West 480 552 36,000  Level Albuquerque Center
12:47PM 33.8925 -108.8697 255° West 477 549 36,000  Level Albuquerque Center
12:48PM 33.8581 -109.0172 254° West 477 549 36,000  Level Albuquerque Center
12:49PM 33.8189 -109.1892 255° West 477 549 36,000  Level Albuquerque Center
12:50PM 33.7853 -109.3378 255° West 478 550 36,000  Level Albuquerque Center
12:51PM 33.7472 -109.4847 253° West 475 547 36,000  Level Albuquerque Center
12:52PM 33.7072 -109.6394 253° West 484 557 36,000  Level Albuquerque Center
12:53PM 33.6711 -109.8181 256° West 468 539 36,000  Level Albuquerque Center
12:55PM 33.6347 -109.9692 254° West 470 541 36,000  Level Albuquerque Center
12:56PM 33.6019 -110.1150 255° West 474 545 36,000  Level Albuquerque Center
12:57PM 33.5653 -110.2681 254° West 477 549 36,000  Level Albuquerque Center
12:58PM 33.5286 -110.4186 254° West 472 543 36,000  Level Albuquerque Center
12:59PM 33.4844 -110.5975 254° West 469 540 36,000  Level Albuquerque Center
01:00PM 33.4478 -110.7461 254° West 467 537 36,000  Level Albuquerque Center
01:01PM 33.4117 -110.8956 254° West 466 536 36,000  Level Albuquerque Center
01:02PM 33.3750 -111.0439 254° West 465 535 36,000  Level Albuquerque Center
01:03PM 33.3372 -111.1931 253° West 467 537 36,000  Level Albuquerque Center
01:04PM 33.2992 -111.3428 253° West 469 540 36,000  Level Albuquerque Center
01:05PM 33.2622 -111.4925 254° West 469 540 36,000  Level Albuquerque Center
01:06PM 33.2156 -111.6731 253° West 472 543 36,000  Level Albuquerque Center
01:07PM 33.1772 -111.8236 253° West 472 543 36,000  Level Albuquerque Center
01:08PM 33.1375 -111.9733 252° West 472 543 36,000  Level Albuquerque Center
01:09PM 33.0994 -112.1244 253° West 475 547 36,000  Level Albuquerque Center
01:10PM 33.0561 -112.2908 253° West 474 545 36,000  Level Albuquerque Center
01:11PM 33.0175 -112.4406 253° West 474 545 36,000  Level Albuquerque Center
01:12PM 32.9792 -112.5889 253° West 473 544 36,000  Level Albuquerque Center
01:13PM 32.9547 -112.7408 259° West 473 544 36,000  Level Albuquerque Center
01:14PM 32.9444 -112.8964 266° West 475 547 36,000  Level Albuquerque Center
01:15PM 32.9325 -113.0836 266° West 477 549 36,000  Level Albuquerque Center
01:16PM 32.9222 -113.2403 266° West 479 551 36,000  Level Albuquerque Center
01:17PM 32.9117 -113.3975 265° West 479 551 36,000  Level Albuquerque Center
01:18PM 32.8981 -113.5536 264° West 479 551 36,000  Level Albuquerque Center
01:19PM 32.8817 -113.6583 259° West 481 554 36,000  Level Los Angeles Center
01:20PM 32.8483 -113.8111 255° West 478 550 36,000  Level Los Angeles Center
01:21PM 32.7989 -113.9244 243° Southwest 480 552 36,000  Level Los Angeles Center
01:22PM 32.7606 -114.1411 258° West 481 554 36,000 -540 Level Los Angeles Center
01:23PM 32.7383 -114.3006 261° West 486 559 34,900 -1,380 Descending Los Angeles Center
01:24PM 32.7536 -114.4625 276° West 493 567 33,200 -1,680 Descending Los Angeles Center
01:25PM 32.7739 -114.6222 279° West 488 562 31,500 -1,680 Descending Los Angeles Center
01:26PM 32.7819 -114.7786 274° West 474 545 29,700 -1,800 Descending Los Angeles Center
01:27PM 32.7811 -114.9333 270° West 468 539 27,500 -2,340 Descending Los Angeles Center
01:28PM 32.7800 -115.1383 270° West 432 497 24,500 -2,280 Descending Los Angeles Center
01:29PM 32.7819 -115.2469 271° West 413 475 22,800 -2,100 Descending Los Angeles Center
01:30PM 32.7797 -115.4089 269° West 409 471 20,200 -2,340 Descending Los Angeles Center
01:32PM 32.7794 -115.5389 270° West 396 456 18,000 -2,100 Descending Los Angeles Center
01:33PM 32.7792 -115.6669 270° West 390 449 15,900 -1,080 Descending Los Angeles Center
01:34PM 32.7778 -115.8153 269° West 375 432 15,800 -60 Descending Los Angeles Center
01:35PM 32.7775 -115.9353 270° West 366 421 15,800 -600 Level Los Angeles Center
01:36PM 32.7764 -116.0458 269° West 339 390 14,600 -1,380 Descending Los Angeles Center
01:37PM 32.7756 -116.1517 269° West 323 372 13,000 -1,560 Descending Los Angeles Center
01:38PM 32.7742 -116.2517 269° West 306 352 11,400 -1,560 Descending Los Angeles Center
01:39PM 32.7731 -116.3506 269° West 298 343 9,800 -780 Descending Los Angeles Center
01:40PM 32.7706 -116.4517 268° West 299 344 9,800 -480 Level Los Angeles Center
01:41PM 32.7169 -116.5225 228° Southwest 293 337 8,900 -1,080 Descending Los Angeles Center
01:42PM 32.6458 -116.6006 223° Southwest 292 336 7,600 -1,320 Descending Los Angeles Center
01:43PM 32.6181 -116.6883 249° West 288 331 6,200 -780 Descending Los Angeles Center
01:44PM 32.6119 -116.7750 265° West 277 319 6,000 -120 Descending Los Angeles Center
01:45PM 32.6108 -116.8678 269° West 279 321 6,000  Level Los Angeles Center
01:46PM 32.6103 -116.9586 270° West 278 320 6,000  Level Los Angeles Center
01:47PM 32.6172 -117.0497 275° West 277 319 6,000  Level Los Angeles Center
01:48PM 32.6333 -117.1167 286° West 281 323 6,000  Level Southern California TRACON
01:49PM 32.6667 -117.2000 295° West 283 326 6,000  Level Southern California TRACON
01:49PM 32.6714 -117.2394 278° West 275 316 6,000  Level Los Angeles Center
01:50PM 32.6839 -117.3131 281° West 231 266 6,000 -120 Level Los Angeles Center
01:51PM 32.6961 -117.3758 283° West 204 235 5,800 -900 Descending Los Angeles Center
01:52PM 32.7081 -117.4353 283° West 188 216 4,200 -1,740 Descending Los Angeles Center
01:53PM 32.7214 -117.4928 285° West 183 211 2,300 -1,080 Descending Los Angeles Center
01:54PM 32.7778 -117.4814 10° North 171 197 2,000 -180 Descending Los Angeles Center
01:55PM 32.7861 -117.4306 79° East 170 196 2,000  Level Los Angeles Center
01:56PM 32.7800 -117.3789 98° East 160 184 2,000  Level Los Angeles Center
01:57PM 32.7661 -117.3289 108° East 158 182 2,000 -240 Level Los Angeles Center
01:58PM 32.7544 -117.2794 106° East 157 181 1,500 -660 Descending Los Angeles Center
01:59PM 32.7442 -117.2356 106° East 144 166 700 -720 Descending Los Angeles Center
02:01PM 32.7339 -117.1889 105° East 140 161 100 -600 Descending Los Angeles Center